Atwood, IL

1:53 AM CDT on November 01, 2014 (GMT -0500)
Hettingers, Parkview Sub. | Change Station
CLOSE
Current Station
Personal Weather Station
Location: Tuscola, IL
Elevation: 656 ft
Nearby Weather Stations
Active Advisory: Freeze Warning

Elev 656 ft 39.81 °N, 88.29 °W | Updated 8 minutes ago

Mostly Cloudy
Mostly Cloudy
35.4 °F
Feels Like 33 °F
N
3.1
Wind Variable Wind from North
Gusts 10.5 mph

Today
High -- | Low -- °F
--% Chance of Precip.
Yesterday
High -- | Low -- °F
Precip. -- in
7:22 AM 5:51 PM
Waxing Gibbous, 63% visible
Pressure 30.31 in
Visibility 10.0 miles
Clouds Mostly Cloudy 3000 ft
Overcast 4700 ft
Windchill 33 °F
Dew Point 13 °F
Humidity 39%
Rainfall 0.00 in
Snow Depth Not available.
UV 0 out of 12
Pollen .30 out of 12
Air Quality Not available.
Flu Activity Not available.
SPECI KCMI 010646Z AUTO 34015KT 10SM BKN030 OVC047 01/M06 A3031 RMK AO2 T00111056 $

More Conditions Fewer Conditions

Pressure 30.31 in
Visibility 10.0 miles
Clouds Mostly Cloudy 3000 ft
Overcast 4700 ft
Windchill 33 °F
Dew Point 13 °F
Humidity 39%
Rainfall 0.00 in
Snow Depth Not available.
UV 0 out of 12
Pollen .30 out of 12
Air Quality Not available.
Flu Activity Not available.
SPECI KCMI 010646Z AUTO 34015KT 10SM BKN030 OVC047 01/M06 A3031 RMK AO2 T00111056 $

More Conditions Fewer Conditions

10-Day Weather Forecast

Almanac

Astronomy

Nov. 01, 2014 Rise Set
Actual Time
Civil Twilight
Nautical Twilight
Astronomical Twilight
Moon
Length of Visible Light
Length of Day
Tomorrow will be .
, % of the Moon is Illuminated

Today's Extremes

State Highs State Lows

Community

WunderPhotos

Upload Photos

1,766,865 photos uploaded!

WunderBlogs® & News

Nearby

Air Quality

  Air Quality AQ Index Pollutant
Not available.

Snow Depth

Station Depth Elevation

Earthquake Activity

City Distance Mag. Time & Date
Minimum magnitude displayed is 2.5.

Coastal Water Temperatures

Place Temperature

Nearby Weather Stations